createdAt,value
2023-06-10T00:00:00.813Z,23.81
2023-06-10T00:04:51.262Z,23.80
2023-06-10T00:09:42.294Z,23.73
2023-06-10T00:14:35.001Z,23.68
2023-06-10T00:19:26.877Z,23.62
2023-06-10T00:24:16.684Z,23.56
2023-06-10T00:29:06.690Z,23.48
2023-06-10T00:34:00.360Z,23.38
2023-06-10T00:38:51.096Z,23.37
2023-06-10T00:43:40.867Z,23.32
2023-06-10T00:48:32.388Z,23.23
2023-06-10T00:53:26.338Z,23.10
2023-06-10T00:58:16.930Z,23.02
2023-06-10T01:03:09.674Z,22.91
2023-06-10T01:08:04.176Z,22.78
2023-06-10T01:13:00.651Z,22.55
2023-06-10T01:18:00.516Z,22.41
2023-06-10T01:22:55.507Z,22.36
2023-06-10T01:27:46.684Z,22.37
2023-06-10T01:32:41.420Z,22.36
2023-06-10T01:37:31.619Z,22.34
2023-06-10T01:42:25.701Z,22.26
2023-06-10T01:47:17.977Z,22.21
2023-06-10T01:52:08.934Z,22.14
2023-06-10T01:56:58.880Z,22.07
2023-06-10T02:01:51.569Z,21.97
2023-06-10T02:06:41.717Z,22.01
2023-06-10T02:11:31.718Z,22.00
2023-06-10T02:16:22.575Z,21.90
2023-06-10T02:21:14.967Z,21.83
2023-06-10T02:26:05.488Z,21.90
2023-06-10T02:30:55.517Z,21.86
2023-06-10T02:35:45.785Z,21.86
2023-06-10T02:40:38.309Z,21.83
2023-06-10T02:45:28.677Z,21.79
2023-06-10T02:50:20.483Z,21.73
2023-06-10T02:55:27.819Z,21.69
2023-06-10T03:00:26.480Z,21.67
2023-06-10T03:05:19.494Z,21.63
2023-06-10T03:10:12.885Z,21.60
2023-06-10T03:15:05.322Z,21.52
2023-06-10T03:19:58.072Z,21.44
2023-06-10T03:24:51.595Z,21.41
2023-06-10T03:29:43.240Z,21.35
2023-06-10T03:34:35.213Z,21.35
2023-06-10T03:39:30.639Z,21.18
2023-06-10T03:44:23.327Z,21.16
2023-06-10T03:49:13.741Z,21.06
2023-06-10T03:54:07.255Z,21.03
2023-06-10T03:59:00.452Z,21.00
2023-06-10T04:03:52.591Z,20.93
2023-06-10T04:08:42.762Z,20.87
2023-06-10T04:13:32.408Z,20.86
2023-06-10T04:18:26.576Z,20.79
2023-06-10T04:23:19.627Z,20.68
2023-06-10T04:28:10.145Z,20.59
2023-06-10T04:33:01.252Z,20.55
2023-06-10T04:37:54.923Z,20.51
2023-06-10T04:42:47.067Z,20.47
2023-06-10T04:47:38.128Z,20.49
2023-06-10T04:52:29.155Z,20.53
2023-06-10T04:57:21.612Z,20.52
2023-06-10T05:02:11.402Z,20.50
2023-06-10T05:07:01.042Z,20.48
2023-06-10T05:11:51.002Z,20.50
2023-06-10T05:16:44.566Z,20.52
2023-06-10T05:21:34.493Z,20.56
2023-06-10T05:26:26.645Z,20.57
2023-06-10T05:31:16.942Z,20.56
2023-06-10T05:36:09.489Z,20.58
2023-06-10T05:41:00.197Z,20.59
2023-06-10T05:45:50.914Z,20.60
2023-06-10T05:50:41.655Z,20.62
2023-06-10T05:55:37.357Z,20.67
2023-06-10T06:00:28.576Z,20.73
2023-06-10T06:05:18.509Z,20.77
2023-06-10T06:10:08.690Z,20.81
2023-06-10T06:15:02.816Z,20.86
2023-06-10T06:19:53.783Z,20.91
2023-06-10T06:24:44.099Z,20.97
2023-06-10T06:29:35.198Z,21.02
2023-06-10T06:34:27.884Z,21.08
2023-06-10T06:39:17.693Z,21.14
2023-06-10T06:44:08.271Z,21.20
2023-06-10T06:49:02.194Z,21.24
2023-06-10T06:53:58.005Z,21.29
2023-06-10T06:58:47.506Z,21.37
2023-06-10T07:03:38.299Z,21.47
2023-06-10T07:08:28.848Z,21.53
2023-06-10T07:13:21.926Z,21.59
2023-06-10T07:18:11.841Z,21.67
2023-06-10T07:23:01.767Z,21.76
2023-06-10T07:27:51.333Z,21.85
2023-06-10T07:32:44.925Z,21.94
2023-06-10T07:37:34.480Z,22.05
2023-06-10T07:42:24.066Z,22.18
2023-06-10T07:47:13.869Z,22.28
2023-06-10T07:52:06.936Z,22.41
2023-06-10T07:56:56.499Z,22.64
2023-06-10T08:01:46.069Z,22.95
2023-06-10T08:06:35.804Z,23.28
2023-06-10T08:11:31.060Z,23.64
2023-06-10T08:16:20.979Z,24.03
2023-06-10T08:21:11.735Z,24.31
2023-06-10T08:26:02.240Z,24.67
2023-06-10T08:30:57.413Z,24.99
2023-06-10T08:35:47.321Z,25.33
2023-06-10T08:40:37.168Z,25.62
2023-06-10T08:45:27.484Z,25.84
2023-06-10T08:50:21.634Z,26.14
2023-06-10T08:55:16.036Z,26.47
2023-06-10T09:00:05.946Z,26.66
2023-06-10T09:04:55.701Z,26.97
2023-06-10T09:09:48.533Z,27.31
2023-06-10T09:14:38.299Z,27.72
2023-06-10T09:19:28.159Z,27.99
2023-06-10T09:24:18.250Z,28.24
2023-06-10T09:29:13.028Z,28.46
2023-06-10T09:34:09.610Z,28.76
2023-06-10T09:39:00.372Z,29.05
2023-06-10T09:43:50.439Z,29.31
2023-06-10T09:48:44.634Z,29.53
2023-06-10T09:53:37.783Z,29.70
2023-06-10T09:58:37.547Z,29.95
2023-06-10T10:03:27.252Z,30.12
2023-06-10T10:08:19.826Z,30.32
2023-06-10T10:13:10.555Z,30.66
2023-06-10T10:18:08.065Z,30.87
2023-06-10T10:23:01.461Z,31.00
2023-06-10T10:27:59.218Z,31.28
2023-06-10T10:32:59.722Z,31.43
2023-06-10T10:37:51.471Z,31.35
2023-06-10T10:42:42.735Z,31.75
2023-06-10T10:47:38.976Z,31.86
2023-06-10T10:52:49.616Z,31.95
2023-06-10T10:57:44.326Z,31.87
2023-06-10T11:02:45.944Z,31.92
2023-06-10T11:07:38.685Z,32.00
2023-06-10T11:12:28.561Z,32.10
2023-06-10T11:17:25.079Z,32.08
2023-06-10T11:22:21.170Z,32.11
2023-06-10T11:27:21.713Z,32.16
2023-06-10T11:32:16.596Z,32.27
2023-06-10T11:37:07.392Z,32.16
2023-06-10T11:42:01.967Z,32.12
2023-06-10T11:46:54.189Z,32.15
2023-06-10T11:51:51.021Z,32.02
2023-06-10T11:56:43.866Z,32.11
2023-06-10T12:01:39.372Z,32.20
2023-06-10T12:06:31.241Z,32.15
2023-06-10T12:11:23.402Z,32.18
2023-06-10T12:16:14.550Z,32.22
2023-06-10T12:21:14.320Z,32.33
2023-06-10T12:26:04.262Z,32.38
2023-06-10T12:30:55.152Z,32.57
2023-06-10T12:35:51.526Z,32.57
2023-06-10T12:40:45.081Z,32.58
2023-06-10T12:45:41.279Z,32.56
2023-06-10T12:50:31.115Z,32.57
2023-06-10T12:55:20.970Z,32.77
2023-06-10T13:00:15.753Z,32.80
2023-06-10T13:05:06.733Z,32.59
2023-06-10T13:10:00.545Z,32.53
2023-06-10T13:14:50.815Z,32.47
2023-06-10T13:19:44.080Z,32.38
2023-06-10T13:24:38.878Z,32.20
2023-06-10T13:29:28.810Z,32.08
2023-06-10T13:34:20.009Z,32.10
2023-06-10T13:39:15.156Z,32.02
2023-06-10T13:44:04.763Z,31.97
2023-06-10T13:48:54.776Z,31.93
2023-06-10T13:53:44.340Z,32.08
2023-06-10T13:58:40.151Z,32.20
2023-06-10T14:03:32.333Z,32.28
2023-06-10T14:08:22.445Z,32.38
2023-06-10T14:13:15.604Z,32.25
2023-06-10T14:18:09.498Z,32.11
2023-06-10T14:23:01.045Z,32.12
2023-06-10T14:27:51.747Z,32.25
2023-06-10T14:32:41.468Z,32.25
2023-06-10T14:37:33.960Z,32.33
2023-06-10T14:49:21.081Z,31.83
2023-06-10T14:54:10.774Z,31.93
2023-06-10T14:59:00.514Z,31.95
2023-06-10T15:04:48.687Z,32.06
2023-06-10T15:10:49.750Z,32.00
2023-06-10T15:15:43.731Z,32.11
2023-06-10T15:20:36.166Z,32.15
2023-06-10T15:25:31.334Z,32.03
2023-06-10T15:30:23.970Z,31.92
2023-06-10T15:35:13.775Z,31.98
2023-06-10T15:40:03.654Z,32.08
2023-06-10T15:44:53.902Z,32.14
2023-06-10T15:49:46.499Z,31.33
2023-06-10T15:54:36.503Z,31.68
2023-06-10T15:59:26.352Z,31.62
2023-06-10T16:04:16.500Z,31.67
2023-06-10T16:09:09.906Z,31.78
2023-06-10T16:13:59.911Z,31.92
2023-06-10T16:18:49.908Z,31.77
2023-06-10T16:23:40.277Z,31.67
2023-06-10T16:28:36.219Z,31.63
2023-06-10T16:33:26.521Z,31.62
2023-06-10T16:38:17.526Z,31.89
2023-06-10T16:43:07.754Z,31.83
2023-06-10T16:48:00.344Z,31.87
2023-06-10T16:52:50.186Z,31.84
2023-06-10T16:57:40.037Z,31.72
2023-06-10T17:02:30.186Z,31.53
2023-06-10T17:07:22.996Z,31.48
2023-06-10T17:12:13.848Z,31.46
2023-06-10T17:17:04.321Z,31.30
2023-06-10T17:21:54.298Z,31.34
2023-06-10T17:26:46.909Z,31.24
2023-06-10T17:31:37.336Z,31.19
2023-06-10T17:36:28.634Z,30.84
2023-06-10T17:41:18.924Z,30.91
2023-06-10T17:46:11.713Z,30.88
2023-06-10T17:51:02.355Z,30.70
2023-06-10T17:55:53.677Z,30.66
2023-06-10T18:00:44.070Z,30.61
2023-06-10T18:05:37.427Z,30.49
2023-06-10T18:10:29.311Z,30.41
2023-06-10T18:15:19.682Z,30.27
2023-06-10T18:20:11.200Z,30.16
2023-06-10T18:25:07.817Z,30.05
2023-06-10T18:29:59.506Z,30.00
2023-06-10T18:34:51.255Z,29.92
2023-06-10T18:39:41.166Z,29.92
2023-06-10T18:44:36.233Z,29.88
2023-06-10T18:49:26.323Z,29.72
2023-06-10T18:54:19.583Z,29.60
2023-06-10T18:59:10.362Z,29.39
2023-06-10T19:04:04.060Z,29.35
2023-06-10T19:08:54.334Z,29.25
2023-06-10T19:13:44.535Z,29.18
2023-06-10T19:18:34.684Z,29.06
2023-06-10T19:23:27.508Z,28.92
2023-06-10T19:28:17.438Z,28.86
2023-06-10T19:33:10.925Z,28.79
2023-06-10T19:38:01.816Z,28.66
2023-06-10T19:42:54.851Z,28.54
2023-06-10T19:47:44.765Z,28.50
2023-06-10T19:52:35.099Z,28.38
2023-06-10T19:57:24.936Z,28.27
2023-06-10T20:02:17.806Z,28.24
2023-06-10T20:07:11.319Z,28.17
2023-06-10T20:12:04.584Z,28.07
2023-06-10T20:16:55.330Z,27.90
2023-06-10T20:21:47.785Z,27.91
2023-06-10T20:26:38.010Z,27.84
2023-06-10T20:31:28.728Z,27.68
2023-06-10T20:36:20.221Z,27.58
2023-06-10T20:41:12.728Z,27.52
2023-06-10T20:46:02.663Z,27.52
2023-06-10T20:50:53.003Z,27.44
2023-06-10T20:55:45.033Z,27.35
2023-06-10T21:00:37.647Z,27.20
2023-06-10T21:05:27.458Z,27.12
2023-06-10T21:10:18.976Z,27.01
2023-06-10T21:15:12.391Z,26.89
2023-06-10T21:20:05.676Z,26.76
2023-06-10T21:24:56.019Z,26.72
2023-06-10T21:29:45.967Z,26.58
2023-06-10T21:34:36.306Z,26.41
2023-06-10T21:39:29.067Z,26.32
2023-06-10T21:44:18.979Z,26.29
2023-06-10T21:49:09.011Z,26.14
2023-06-10T21:53:59.165Z,26.13
2023-06-10T21:58:51.672Z,26.11
2023-06-10T22:03:41.574Z,26.05
2023-06-10T22:08:31.694Z,26.05
2023-06-10T22:13:21.827Z,25.86
2023-06-10T22:18:14.945Z,25.81
2023-06-10T22:23:04.919Z,25.72
2023-06-10T22:27:54.874Z,25.61
2023-06-10T22:32:44.779Z,25.54
2023-06-10T22:37:37.860Z,25.42
2023-06-10T22:42:27.702Z,25.35
2023-06-10T22:47:17.794Z,25.25
2023-06-10T22:52:08.642Z,25.16
2023-06-10T22:57:01.162Z,25.07
2023-06-10T23:01:51.051Z,25.01
2023-06-10T23:06:41.319Z,24.91
2023-06-10T23:11:31.328Z,24.85
2023-06-10T23:16:23.924Z,24.71
2023-06-10T23:21:16.152Z,24.73
2023-06-10T23:26:06.819Z,24.64
2023-06-10T23:30:57.059Z,24.67
2023-06-10T23:35:50.042Z,24.54
2023-06-10T23:40:41.114Z,24.52
2023-06-10T23:45:31.606Z,24.50
2023-06-10T23:50:21.672Z,24.41
2023-06-10T23:55:14.727Z,24.38
